sensor_id;sensor_type;location;lat;lon;timestamp;pressure;altitude;pressure_sealevel;temperature;humidity
58739;BME280;44512;53.046;18.604;2023-05-02T00:04:47;101418.56;;;14.61;38.45
58739;BME280;44512;53.046;18.604;2023-05-02T00:15:15;101395.94;;;14.53;38.62
58739;BME280;44512;53.046;18.604;2023-05-02T00:25:44;101381.89;;;14.50;38.75
58739;BME280;44512;53.046;18.604;2023-05-02T00:36:16;101375.58;;;14.43;38.89
58739;BME280;44512;53.046;18.604;2023-05-02T00:46:41;101365.10;;;14.40;39.06
58739;BME280;44512;53.046;18.604;2023-05-02T00:57:09;101356.29;;;14.31;39.28
58739;BME280;44512;53.046;18.604;2023-05-02T01:18:08;101350.24;;;14.22;39.53
58739;BME280;44512;53.046;18.604;2023-05-02T01:28:49;101345.42;;;14.18;39.67
58739;BME280;44512;53.046;18.604;2023-05-02T01:39:04;101338.09;;;14.12;39.81
58739;BME280;44512;53.046;18.604;2023-05-02T01:49:33;101326.99;;;14.06;40.02
58739;BME280;44512;53.046;18.604;2023-05-02T02:00:00;101320.91;;;13.98;40.31
58739;BME280;44512;53.046;18.604;2023-05-02T02:10:31;101313.77;;;13.77;40.79
58739;BME280;44512;53.046;18.604;2023-05-02T02:20:58;101314.79;;;13.63;41.22
58739;BME280;44512;53.046;18.604;2023-05-02T02:31:30;101304.95;;;13.55;41.63
58739;BME280;44512;53.046;18.604;2023-05-02T03:02:51;101299.06;;;13.51;42.45
58739;BME280;44512;53.046;18.604;2023-05-02T03:13:18;101308.28;;;13.50;42.71
58739;BME280;44512;53.046;18.604;2023-05-02T03:23:46;101300.74;;;13.52;43.01
58739;BME280;44512;53.046;18.604;2023-05-02T03:34:15;101327.94;;;13.52;43.26
58739;BME280;44512;53.046;18.604;2023-05-02T03:44:43;101331.70;;;13.51;43.50
58739;BME280;44512;53.046;18.604;2023-05-02T03:55:12;101335.48;;;13.50;43.74
58739;BME280;44512;53.046;18.604;2023-05-02T04:05:39;101353.86;;;13.48;44.05
58739;BME280;44512;53.046;18.604;2023-05-02T04:16:08;101345.52;;;13.50;45.31
58739;BME280;44512;53.046;18.604;2023-05-02T04:26:36;101346.35;;;13.50;45.49
58739;BME280;44512;53.046;18.604;2023-05-02T04:37:05;101353.46;;;13.51;45.57
58739;BME280;44512;53.046;18.604;2023-05-02T04:47:33;101363.30;;;13.52;45.61
58739;BME280;44512;53.046;18.604;2023-05-02T04:58:01;101371.68;;;13.58;45.64
58739;BME280;44512;53.046;18.604;2023-05-02T05:08:30;101367.06;;;13.51;45.84
58739;BME280;44512;53.046;18.604;2023-05-02T05:18:58;101371.23;;;13.47;46.15
58739;BME280;44512;53.046;18.604;2023-05-02T05:29:26;101384.82;;;13.47;46.50
58739;BME280;44512;53.046;18.604;2023-05-02T05:39:55;101401.97;;;13.48;46.87
58739;BME280;44512;53.046;18.604;2023-05-02T05:50:23;101407.24;;;13.49;47.56
58739;BME280;44512;53.046;18.604;2023-05-02T06:00:52;101422.30;;;13.52;48.32
58739;BME280;44512;53.046;18.604;2023-05-02T06:11:20;101425.46;;;13.55;48.88
58739;BME280;44512;53.046;18.604;2023-05-02T06:21:48;101426.73;;;13.60;49.73
58739;BME280;44512;53.046;18.604;2023-05-02T06:32:17;101454.16;;;13.65;51.19
58739;BME280;44512;53.046;18.604;2023-05-02T06:42:45;101467.34;;;13.68;52.25
58739;BME280;44512;53.046;18.604;2023-05-02T06:53:13;101466.95;;;13.71;52.55
58739;BME280;44512;53.046;18.604;2023-05-02T07:03:42;101492.72;;;13.75;53.53
58739;BME280;44512;53.046;18.604;2023-05-02T07:14:10;101514.27;;;13.76;54.44
58739;BME280;44512;53.046;18.604;2023-05-02T07:24:40;101530.59;;;13.76;55.61
58739;BME280;44512;53.046;18.604;2023-05-02T07:35:08;101543.96;;;13.71;56.62
58739;BME280;44512;53.046;18.604;2023-05-02T07:45:35;101551.05;;;13.66;57.62
58739;BME280;44512;53.046;18.604;2023-05-02T07:56:05;101556.88;;;13.63;57.98
58739;BME280;44512;53.046;18.604;2023-05-02T08:06:32;101562.56;;;13.68;57.73
58739;BME280;44512;53.046;18.604;2023-05-02T08:17:00;101571.62;;;13.75;57.77
58739;BME280;44512;53.046;18.604;2023-05-02T08:27:29;101582.70;;;13.80;57.85
58739;BME280;44512;53.046;18.604;2023-05-02T08:37:57;101593.68;;;13.93;57.61
58739;BME280;44512;53.046;18.604;2023-05-02T08:48:26;101603.59;;;14.07;57.37
58739;BME280;44512;53.046;18.604;2023-05-02T08:58:54;101617.93;;;14.29;57.00
58739;BME280;44512;53.046;18.604;2023-05-02T09:09:23;101622.23;;;14.52;56.22
58739;BME280;44512;53.046;18.604;2023-05-02T09:19:59;101609.11;;;14.82;54.54
58739;BME280;44512;53.046;18.604;2023-05-02T09:30:24;101621.09;;;15.14;52.50
58739;BME280;44512;53.046;18.604;2023-05-02T09:40:54;101638.93;;;15.50;50.88
58739;BME280;44512;53.046;18.604;2023-05-02T09:51:17;101647.96;;;15.83;49.21
58739;BME280;44512;53.046;18.604;2023-05-02T10:01:45;101649.15;;;16.07;48.07
58739;BME280;44512;53.046;18.604;2023-05-02T10:12:14;101664.23;;;16.30;47.78
58739;BME280;44512;53.046;18.604;2023-05-02T10:22:42;101652.39;;;16.49;45.37
58739;BME280;44512;53.046;18.604;2023-05-02T10:33:12;101667.63;;;16.77;42.37
58739;BME280;44512;53.046;18.604;2023-05-02T10:43:38;101679.95;;;16.92;41.89
58739;BME280;44512;53.046;18.604;2023-05-02T11:15:04;101697.86;;;17.20;41.40
58739;BME280;44512;53.046;18.604;2023-05-02T11:25:36;101694.58;;;17.36;40.73
58739;BME280;44512;53.046;18.604;2023-05-02T11:36:00;101712.38;;;17.52;39.11
58739;BME280;44512;53.046;18.604;2023-05-02T11:46:29;101726.38;;;17.62;37.99
58739;BME280;44512;53.046;18.604;2023-05-02T11:56:59;101723.58;;;17.76;37.75
58739;BME280;44512;53.046;18.604;2023-05-02T12:17:53;101735.20;;;17.96;37.05
58739;BME280;44512;53.046;18.604;2023-05-02T12:28:21;101749.05;;;18.01;36.64
58739;BME280;44512;53.046;18.604;2023-05-02T12:38:57;101757.84;;;18.10;36.60
58739;BME280;44512;53.046;18.604;2023-05-02T12:49:18;101761.11;;;18.18;36.74
58739;BME280;44512;53.046;18.604;2023-05-02T12:59:46;101782.15;;;18.25;37.17
58739;BME280;44512;53.046;18.604;2023-05-02T13:10:15;101792.20;;;18.31;37.08
58739;BME280;44512;53.046;18.604;2023-05-02T13:20:43;101813.62;;;18.40;37.32
58739;BME280;44512;53.046;18.604;2023-05-02T13:31:12;101824.95;;;18.44;37.53
58739;BME280;44512;53.046;18.604;2023-05-02T13:41:40;101841.39;;;18.44;38.34
58739;BME280;44512;53.046;18.604;2023-05-02T13:52:08;101847.67;;;18.51;41.12
58739;BME280;44512;53.046;18.604;2023-05-02T14:02:37;101862.74;;;18.60;41.92
58739;BME280;44512;53.046;18.604;2023-05-02T14:13:05;101878.12;;;18.68;41.97
58739;BME280;44512;53.046;18.604;2023-05-02T14:23:33;101897.70;;;18.71;41.78
58739;BME280;44512;53.046;18.604;2023-05-02T14:34:01;101914.36;;;18.70;42.44
58739;BME280;44512;53.046;18.604;2023-05-02T14:49:45;101936.94;;;18.65;42.98
58739;BME280;44512;53.046;18.604;2023-05-02T15:00:14;101944.94;;;18.73;42.71
58739;BME280;44512;53.046;18.604;2023-05-02T15:10:42;101971.16;;;18.63;42.09
58739;BME280;44512;53.046;18.604;2023-05-02T15:21:10;101996.15;;;18.48;42.29
58739;BME280;44512;53.046;18.604;2023-05-02T15:31:38;102011.34;;;18.51;42.49
58739;BME280;44512;53.046;18.604;2023-05-02T15:42:07;102012.17;;;18.51;42.45
58739;BME280;44512;53.046;18.604;2023-05-02T15:52:35;102033.29;;;18.44;42.27
58739;BME280;44512;53.046;18.604;2023-05-02T16:03:04;102037.63;;;18.27;42.46
58739;BME280;44512;53.046;18.604;2023-05-02T16:13:32;102053.73;;;18.10;42.59
58739;BME280;44512;53.046;18.604;2023-05-02T16:24:00;102062.90;;;18.29;42.30
58739;BME280;44512;53.046;18.604;2023-05-02T16:34:30;102068.18;;;18.30;41.84
58739;BME280;44512;53.046;18.604;2023-05-02T16:44:57;102078.98;;;18.18;41.76
58739;BME280;44512;53.046;18.604;2023-05-02T16:55:25;102073.95;;;18.09;41.79
58739;BME280;44512;53.046;18.604;2023-05-02T17:05:57;102087.27;;;18.05;41.63
58739;BME280;44512;53.046;18.604;2023-05-02T17:16:22;102100.58;;;17.95;41.67
58739;BME280;44512;53.046;18.604;2023-05-02T17:26:51;102110.27;;;17.91;41.66
58739;BME280;44512;53.046;18.604;2023-05-02T17:37:19;102115.78;;;17.78;41.49
58739;BME280;44512;53.046;18.604;2023-05-02T17:47:47;102124.84;;;17.65;41.14
58739;BME280;44512;53.046;18.604;2023-05-02T17:58:15;102142.76;;;17.41;40.88
58739;BME280;44512;53.046;18.604;2023-05-02T18:08:44;102161.72;;;17.23;40.58
58739;BME280;44512;53.046;18.604;2023-05-02T18:19:12;102175.59;;;17.01;40.58
58739;BME280;44512;53.046;18.604;2023-05-02T18:29:40;102175.96;;;16.85;40.47
58739;BME280;44512;53.046;18.604;2023-05-02T18:40:09;102191.95;;;16.75;40.42
58739;BME280;44512;53.046;18.604;2023-05-02T18:50:37;102215.41;;;16.62;40.57
58739;BME280;44512;53.046;18.604;2023-05-02T19:01:12;102247.03;;;16.37;40.96
58739;BME280;44512;53.046;18.604;2023-05-02T19:11:34;102250.90;;;16.14;41.45
58739;BME280;44512;53.046;18.604;2023-05-02T19:22:02;102268.93;;;16.09;41.66
58739;BME280;44512;53.046;18.604;2023-05-02T19:32:30;102285.67;;;15.99;41.73
58739;BME280;44512;53.046;18.604;2023-05-02T19:42:59;102307.55;;;15.78;41.61
58739;BME280;44512;53.046;18.604;2023-05-02T19:53:27;102328.58;;;15.62;41.25
58739;BME280;44512;53.046;18.604;2023-05-02T20:03:56;102332.27;;;15.55;40.96
58739;BME280;44512;53.046;18.604;2023-05-02T20:14:24;102347.73;;;15.48;40.96
58739;BME280;44512;53.046;18.604;2023-05-02T20:24:52;102360.20;;;15.35;40.80
58739;BME280;44512;53.046;18.604;2023-05-02T20:35:21;102370.38;;;15.27;40.44
58739;BME280;44512;53.046;18.604;2023-05-02T20:45:49;102369.84;;;15.17;40.35
58739;BME280;44512;53.046;18.604;2023-05-02T20:56:17;102372.01;;;15.06;40.41
58739;BME280;44512;53.046;18.604;2023-05-02T21:06:46;102373.14;;;14.97;40.29
58739;BME280;44512;53.046;18.604;2023-05-02T21:17:14;102379.55;;;14.90;40.32
58739;BME280;44512;53.046;18.604;2023-05-02T21:27:42;102383.88;;;14.84;40.33
58739;BME280;44512;53.046;18.604;2023-05-02T21:38:11;102390.06;;;14.78;40.54
58739;BME280;44512;53.046;18.604;2023-05-02T21:48:39;102405.97;;;14.74;40.91
58739;BME280;44512;53.046;18.604;2023-05-02T21:59:07;102410.09;;;14.70;41.81
58739;BME280;44512;53.046;18.604;2023-05-02T22:09:36;102402.54;;;14.57;43.32
58739;BME280;44512;53.046;18.604;2023-05-02T22:20:05;102417.76;;;14.52;44.86
58739;BME280;44512;53.046;18.604;2023-05-02T22:30:32;102429.92;;;14.41;45.48
58739;BME280;44512;53.046;18.604;2023-05-02T22:41:01;102438.54;;;14.30;45.88
58739;BME280;44512;53.046;18.604;2023-05-02T22:51:29;102449.87;;;14.19;46.55
58739;BME280;44512;53.046;18.604;2023-05-02T23:01:58;102454.36;;;14.12;47.15
58739;BME280;44512;53.046;18.604;2023-05-02T23:12:26;102469.91;;;14.03;47.60
58739;BME280;44512;53.046;18.604;2023-05-02T23:22:54;102477.95;;;13.96;48.07
58739;BME280;44512;53.046;18.604;2023-05-02T23:33:24;102479.03;;;13.87;48.45
58739;BME280;44512;53.046;18.604;2023-05-02T23:43:51;102480.49;;;13.67;49.32
58739;BME280;44512;53.046;18.604;2023-05-02T23:54:19;102500.73;;;13.64;49.07
